Latest Coastal Weather Observations for Bunbury

IDW60701

Issued at 9:35 pm WST Thursday 30 October 2014 (issued every 10 minutes, with the page automatically refreshed every 10 minutes)

About coastal observations | Map of coastal stations | Coastal observations for WA | Marine services | Other Formats
Station Details ID: 009965 Name: BUNBURY Lat: -33.36 Lon: 115.64 Height: 5.2 m
Data from the previous 72 hours. | See also: Recent months at Bunbury
Date/Time
WST
Temp

°C
Wind Pressure Rain
since 9am
mm
Weather Cloud Vis
km
Sea
Height
m
Swell
Dir
 
Speed
knots
Gust
knots
hPa Trend Height
m
Period
s
Dir
30/09:30pm 16.9 W 10 17 1010.6 - 0.0 - - - - - - -
30/09:00pm 16.6 W 9 15 1010.6 - 0.0 - - - - - - -
30/08:30pm 16.7 WSW 10 24 1010.5 - 0.0 - - - - - - -
30/08:00pm 17.6 W 9 15 1010.3 - 0.0 - - - - - - -
30/07:30pm 17.6 W 8 12 1010.0 - 0.0 - - - - - - -
30/07:00pm 17.6 W 9 17 1009.8 - 0.0 - - - - - - -
30/06:30pm 17.4 WSW 9 15 1012.2 - 0.0 - - - - - - -
30/06:00pm 17.4 W 8 13 1013.0 - 0.0 - - - - - - -
30/05:30pm 17.3 W 9 16 1009.0 - 0.0 - - - - - - -
30/05:00pm 18.2 W 9 15 1008.8 - 0.0 - - - - - - -
30/04:30pm 17.5 W 8 14 1008.5 - 0.0 - - - - - - -
30/04:00pm 17.8 W 9 15 1008.3 - 0.0 - - - - - - -
30/03:30pm 18.2 WSW 8 13 1008.2 - 0.0 - - - - - - -
30/03:00pm 18.1 WSW 11 15 1008.3 - 0.0 - - - - - - -
30/02:30pm 18.7 W 11 16 1008.7 - 0.0 - - - - - - -
30/02:00pm 19.2 W 11 16 1009.1 - 0.0 - - - - - - -
30/01:30pm 19.1 W 12 17 1009.5 - 0.0 - - - - - - -
30/01:00pm 19.8 W 10 15 1009.8 - 0.0 - - - - - - -
30/12:30pm 19.6 W 11 15 1010.3 - 0.0 - - - - - - -
30/12:00pm 19.8 W 9 13 1010.5 - 0.0 - - - - - - -
30/11:30am 19.2 W 8 12 1010.7 - 0.0 - - - - - - -
30/11:00am 19.0 WSW 7 11 1011.1 - 0.0 - - - - - - -
30/10:30am 18.3 SW 7 11 1011.6 - 0.0 - - - - - - -
30/10:00am 17.4 WSW 6 10 1012.0 - 0.0 - - - - - - -
30/09:30am 17.3 SW 6 11 1012.4 - 0.0 - - - - - - -
30/09:00am 17.0 SSW 7 10 1012.5 - 0.0 - - - - - - -
30/08:30am 16.9 S 5 7 1012.9 - 0.0 - - - - - - -
30/08:00am 16.3 S 8 11 1014.2 - 0.0 - - - - - - -
30/07:30am 15.4 SSW 7 11 1014.4 - 0.0 - - - - - - -
30/07:00am 14.9 SSW 6 10 1013.1 - 0.0 - - - - - - -
30/06:30am 14.8 S 6 7 1013.1 - 0.0 - - - - - - -
30/06:00am 14.5 SSW 5 7 1014.5 - 0.0 - - - - - - -
30/05:30am 14.3 SSW 5 8 1012.7 - 0.0 - - - - - - -
30/05:00am 14.0 SSW 4 7 1014.3 - 0.0 - - - - - - -
30/04:30am 14.0 SSW 4 6 1013.1 - 0.0 - - - - - - -
30/04:00am 13.4 SSW 4 5 1012.7 - 0.0 - - - - - - -
30/03:30am 13.6 SSW 5 7 1014.6 - 0.0 - - - - - - -
30/03:00am 13.4 S 4 5 1013.1 - 0.0 - - - - - - -
30/02:30am 13.7 S 5 7 1013.1 - 0.0 - - - - - - -
30/02:00am 13.9 S 4 6 1013.7 - 0.0 - - - - - - -
30/01:30am 13.4 S 5 7 1014.2 - 0.0 - - - - - - -
30/01:00am 13.2 S 5 7 1013.3 - 0.0 - - - - - - -
30/12:30am 13.4 S 4 6 1014.6 - 0.0 - - - - - - -
30/12:00am 13.8 S 7 10 1015.1 - 0.0 - - - - - - -
 
Date/Time
WST
Temp

°C
Wind Pressure Rain
since 9am
mm
Weather Cloud Vis
km
Sea
Height
m
Swell
Dir
 
Speed
knots
Gust
knots
hPa Trend Height
m
Period
s
Dir
29/11:30pm 13.9 S 6 9 1015.5 - 0.0 - - - - - - -
29/11:00pm 14.2 S 8 12 1014.2 - 0.0 - - - - - - -
29/10:30pm 14.4 S 8 11 1014.1 - 0.0 - - - - - - -
29/10:00pm 14.8 S 8 11 1015.6 - 0.0 - - - - - - -
29/09:30pm 15.5 S 8 13 1014.6 - 0.0 - - - - - - -
29/09:00pm 16.4 S 10 13 1014.4 - 0.0 - - - - - - -
29/08:30pm 17.2 S 9 15 1014.6 - 0.0 - - - - - - -
29/08:00pm 17.9 S 9 12 1014.3 - 0.0 - - - - - - -
29/07:30pm 19.1 S 9 13 1014.2 - 0.0 - - - - - - -
29/07:00pm 20.1 S 8 11 1014.1 - 0.0 - - - - - - -
29/06:30pm 21.4 S 7 10 1014.4 - 0.0 - - - - - - -
29/06:00pm 21.3 SW 3 5 1014.2 - 0.0 - - - - - - -
29/05:30pm 21.2 WSW 5 9 1014.4 - 0.0 - - - - - - -
29/05:00pm 21.6 WSW 6 8 1014.1 - 0.0 - - - - - - -
29/04:30pm 23.4 W 6 8 1015.3 - 0.0 - - - - - - -
29/04:00pm 23.6 WSW 4 8 1013.9 - 0.0 - - - - - - -
29/03:30pm 24.6 W 4 6 1013.6 - 0.0 - - - - - - -
29/03:00pm 23.8 SSE 6 8 1013.6 - 0.0 - - - - - - -
29/02:30pm 23.9 ESE 6 9 1013.9 - 0.0 - - - - - - -
29/02:00pm 23.7 SE 7 11 1014.0 - 0.0 - - - - - - -
29/01:30pm 23.6 SSE 6 10 1014.7 - 0.0 - - - - - - -
29/01:00pm 22.9 S 9 13 1014.5 - 0.0 - - - - - - -
29/12:30pm 22.3 SSE 7 12 1013.3 - 0.0 - - - - - - -
29/12:00pm 22.7 SE 9 15 1012.5 - 0.0 - - - - - - -
29/11:30am 22.2 SSE 11 17 1014.3 - 0.0 - - - - - - -
29/11:00am 22.6 SSE 11 16 1014.7 - 0.0 - - - - - - -
29/10:30am 22.5 SSE 11 16 1014.6 - 0.0 - - - - - - -
29/10:00am 21.5 SE 9 17 1014.8 - 0.0 - - - - - - -
29/09:30am 20.5 SSE 10 13 1014.6 - 0.0 - - - - - - -
29/09:00am 19.5 S 8 13 1014.8 - 0.0 - - - - - - -
29/08:30am 18.3 SSE 9 13 1014.6 - 0.0 - - - - - - -
29/08:00am 16.9 SSE 8 12 1014.6 - 0.0 - - - - - - -
29/07:30am 17.2 SSE 6 8 1015.9 - 0.0 - - - - - - -
29/07:00am 15.6 SSE 5 8 1014.7 - 0.0 - - - - - - -
29/06:30am 14.7 S 5 7 1015.7 - 0.0 - - - - - - -
29/06:00am 13.9 S 4 7 1014.4 - 0.0 - - - - - - -
29/05:30am 13.4 S 5 6 1014.4 - 0.0 - - - - - - -
29/05:00am 13.8 S 5 6 1014.5 - 0.0 - - - - - - -
29/04:30am 14.0 SSE 4 8 1014.3 - 0.0 - - - - - - -
29/04:00am 14.2 S 6 9 1014.5 - 0.0 - - - - - - -
29/03:30am 14.3 SSE 6 9 1013.6 - 0.0 - - - - - - -
29/03:00am 14.5 SSE 8 12 1014.3 - 0.0 - - - - - - -
29/02:30am 14.6 SE 9 16 1014.4 - 0.0 - - - - - - -
29/02:00am 14.8 SSE 7 11 1014.6 - 0.0 - - - - - - -
29/01:30am 14.8 SSE 7 14 1014.5 - 0.0 - - - - - - -
29/01:00am 15.1 SSE 8 11 1014.6 - 0.0 - - - - - - -
29/12:30am 15.4 SSE 9 13 1016.2 - 0.0 - - - - - - -
29/12:00am 15.5 SSE 8 12 1014.8 - 0.0 - - - - - - -
 
Date/Time
WST
Temp

°C
Wind Pressure Rain
since 9am
mm
Weather Cloud Vis
km
Sea
Height
m
Swell
Dir
 
Speed
knots
Gust
knots
hPa Trend Height
m
Period
s
Dir
28/11:30pm 15.6 SSE 8 12 1015.2 - 0.0 - - - - - - -
28/11:00pm 15.4 S 6 9 1015.3 - 0.0 - - - - - - -
28/10:30pm 15.4 S 7 9 1015.4 - 0.0 - - - - - - -
28/10:00pm 15.8 S 8 11 1015.8 - 0.0 - - - - - - -
28/09:30pm 16.5 S 10 15 1016.5 - 0.0 - - - - - - -
28/09:00pm 17.1 S 10 14 1016.1 - 0.0 - - - - - - -
28/08:30pm 18.1 S 9 14 1016.3 - 0.0 - - - - - - -
28/08:00pm 19.0 S 9 14 1016.1 - 0.0 - - - - - - -
28/07:30pm 20.3 S 9 13 1015.7 - 0.0 - - - - - - -
28/07:00pm 21.9 S 10 15 1015.9 - 0.0 - - - - - - -
28/06:30pm 23.6 S 8 12 1015.0 - 0.0 - - - - - - -
28/06:00pm 23.9 SW 3 5 1015.3 - 0.0 - - - - - - -
28/05:30pm 24.9 SW 5 7 1015.1 - 0.0 - - - - - - -
28/05:00pm 23.8 SSW 7 9 1015.3 - 0.0 - - - - - - -
28/04:30pm 23.6 SW 7 12 1015.3 - 0.0 - - - - - - -
28/04:00pm 24.0 SW 7 11 1015.5 - 0.0 - - - - - - -
28/03:30pm 25.9 SW 7 12 1015.5 - 0.0 - - - - - - -
28/03:00pm 25.6 WSW 8 11 1015.8 - 0.0 - - - - - - -
28/02:30pm 24.5 WSW 8 11 1016.1 - 0.0 - - - - - - -
28/02:00pm 25.8 WSW 8 11 1016.2 - 0.0 - - - - - - -
28/01:30pm 26.1 SSW 5 9 1017.4 - 0.0 - - - - - - -
28/01:00pm 26.2 S 5 9 1016.8 - 0.0 - - - - - - -
28/12:30pm 25.7 SSE 7 12 1017.4 - 0.0 - - - - - - -
28/12:00pm 24.8 S 7 12 1017.5 - 0.0 - - - - - - -
28/11:30am 24.8 SSE 6 10 1017.9 - 0.0 - - - - - - -
28/11:00am 23.5 SSE 5 9 1018.3 - 0.0 - - - - - - -
28/10:30am 22.5 S 4 8 1018.9 - 0.0 - - - - - - -
28/10:00am 22.0 E 3 7 1019.3 - 0.0 - - - - - - -
28/09:30am 21.1 SE 6 9 1019.7 - 0.0 - - - - - - -
28/09:00am 20.3 E 4 8 1019.5 - 0.0 - - - - - - -
28/08:30am 19.4 ENE 5 7 1020.1 - 0.0 - - - - - - -
28/08:00am 18.3 E 6 8 1020.4 - 0.0 - - - - - - -
28/07:30am 17.3 ESE 4 7 1014.7 - 0.0 - - - - - - -
28/07:00am 15.2 ESE 3 6 1020.8 - 0.0 - - - - - - -
28/06:30am 14.1 SE 4 5 1020.9 - 0.0 - - - - - - -
28/06:00am 11.7 SE 3 4 1016.5 - 0.0 - - - - - - -
28/05:30am 10.7 SE 4 5 1020.6 - 0.0 - - - - - - -
28/05:00am 10.8 ESE 3 4 1020.5 - 0.0 - - - - - - -
28/04:30am 11.4 SE 5 6 1020.5 - 0.0 - - - - - - -
28/04:00am 11.7 SE 4 5 1020.5 - 0.0 - - - - - - -
28/03:30am 12.2 SE 7 10 1020.5 - 0.0 - - - - - - -
28/03:00am 12.4 SE 9 11 1016.5 - 0.0 - - - - - - -
28/02:30am 12.4 SE 8 12 1019.0 - 0.0 - - - - - - -
28/02:00am 12.4 SE 8 12 1020.8 - 0.0 - - - - - - -
28/01:30am 12.0 SE 7 10 1020.8 - 0.0 - - - - - - -
28/01:00am 11.9 SE 6 8 1020.9 - 0.0 - - - - - - -
28/12:30am 12.0 SSE 5 8 1021.2 - 0.0 - - - - - - -
28/12:00am 12.3 SSE 5 8 1021.5 - 0.0 - - - - - - -
 
Date/Time
WST
Temp

°C
Wind Pressure Rain
since 9am
mm
Weather Cloud Vis
km
Sea
Height
m
Swell
Dir
 
Speed
knots
Gust
knots
hPa Trend Height
m
Period
s
Dir
27/11:30pm 12.4 SSE 6 9 1021.6 - 0.0 - - - - - - -
27/11:00pm 12.9 SSE 6 9 1021.8 - 0.0 - - - - - - -
27/10:30pm 13.2 SSE 6 9 1022.0 - 0.0 - - - - - - -
27/10:00pm 13.5 SSE 7 10 1022.1 - 0.0 - - - - - - -

Other Formats:

Comma delimited format used in spreadsheet applications
http://www.bom.gov.au/fwo/IDW60701/IDW60701.94604.axf

JavaScript Object Notation format (JSON) in row-major order
http://www.bom.gov.au/fwo/IDW60701/IDW60701.94604.json